createdAt,value
2022-11-28T00:01:41.443Z,99100.41
2022-11-28T00:04:09.566Z,99105.00
2022-11-28T00:06:45.760Z,99105.75
2022-11-28T00:09:14.505Z,99098.47
2022-11-28T00:11:42.912Z,99101.16
2022-11-28T00:14:10.547Z,99105.22
2022-11-28T00:16:38.169Z,99099.03
2022-11-28T00:19:06.285Z,99101.91
2022-11-28T00:21:33.610Z,99109.38
2022-11-28T00:24:01.774Z,99099.34
2022-11-28T00:26:36.797Z,99100.81
2022-11-28T00:29:04.866Z,99104.97
2022-11-28T00:31:34.324Z,99093.81
2022-11-28T00:34:03.467Z,99096.97
2022-11-28T00:36:31.449Z,99096.97
2022-11-28T00:38:59.092Z,99099.63
2022-11-28T00:41:29.818Z,99091.63
2022-11-28T00:43:57.762Z,99088.66
2022-11-28T00:46:25.159Z,99086.47
2022-11-28T00:48:52.767Z,99085.91
2022-11-28T00:51:23.355Z,99079.31
2022-11-28T00:53:53.161Z,99072.50
2022-11-28T00:56:27.348Z,99060.34
2022-11-28T00:58:54.678Z,99058.16
2022-11-28T01:01:37.228Z,99058.88
2022-11-28T01:04:07.595Z,99058.16
2022-11-28T01:06:37.979Z,99062.00
2022-11-28T01:09:26.615Z,99062.00
2022-11-28T01:11:54.554Z,99063.22
2022-11-28T01:14:24.675Z,99065.13
2022-11-28T01:16:51.753Z,99070.47
2022-11-28T01:19:19.640Z,99071.22
2022-11-28T01:21:46.769Z,99071.22
2022-11-28T01:24:14.847Z,99078.75
2022-11-28T01:26:42.604Z,99080.94
2022-11-28T01:29:10.116Z,99080.94
2022-11-28T01:31:37.587Z,99079.50
2022-11-28T01:34:04.792Z,99085.28
2022-11-28T01:36:32.192Z,99081.16
2022-11-28T01:38:59.262Z,99090.38
2022-11-28T01:41:28.302Z,99090.38
2022-11-28T01:44:02.893Z,99095.69
2022-11-28T01:46:31.126Z,99088.91
2022-11-28T01:49:03.204Z,99091.56
2022-11-28T01:51:31.661Z,99090.38
2022-11-28T01:53:59.931Z,99095.69
2022-11-28T01:56:31.779Z,99085.75
2022-11-28T01:59:04.786Z,99087.94
2022-11-28T02:01:32.079Z,99091.38
2022-11-28T02:04:00.342Z,99088.22
2022-11-28T02:06:28.333Z,99090.19
2022-11-28T02:08:56.421Z,99084.09
2022-11-28T02:12:01.174Z,99085.56
2022-11-28T02:14:44.595Z,99100.75
2022-11-28T02:17:27.503Z,99092.59
2022-11-28T02:20:36.296Z,99091.31
2022-11-28T02:23:13.026Z,99091.94
2022-11-28T02:26:01.794Z,99081.47
2022-11-28T02:28:46.759Z,99087.72
2022-11-28T02:31:59.019Z,99094.50
2022-11-28T02:34:36.641Z,99092.16
2022-11-28T02:37:23.478Z,99090.94
2022-11-28T02:40:30.888Z,99090.19
2022-11-28T02:43:28.751Z,99092.94
2022-11-28T02:46:03.964Z,99086.16
2022-11-28T02:48:51.313Z,99094.44
2022-11-28T02:51:28.940Z,99096.63
2022-11-28T02:53:57.403Z,99094.22
2022-11-28T02:56:25.572Z,99095.25
2022-11-28T02:58:53.040Z,99098.94
2022-11-28T03:01:26.005Z,99091.66
2022-11-28T03:04:07.998Z,99097.00
2022-11-28T03:06:50.010Z,99095.50
2022-11-28T03:09:37.070Z,99095.50
2022-11-28T03:12:26.385Z,99089.00
2022-11-28T03:14:55.039Z,99079.31
2022-11-28T03:17:28.003Z,99092.94
2022-11-28T03:19:55.029Z,99086.41
2022-11-28T03:22:30.776Z,99085.38
2022-11-28T03:25:06.325Z,99070.50
2022-11-28T03:27:39.211Z,99064.41
2022-11-28T03:30:19.752Z,99072.41
2022-11-28T03:32:51.568Z,99065.41
2022-11-28T03:35:24.183Z,99066.91
2022-11-28T03:37:59.226Z,99061.84
2022-11-28T03:40:33.441Z,99059.97
2022-11-28T03:43:09.275Z,99064.13
2022-11-28T03:45:43.354Z,99064.22
2022-11-28T03:48:24.223Z,99073.78
2022-11-28T03:50:58.922Z,99070.44
2022-11-28T03:53:39.266Z,99070.25
2022-11-28T03:56:23.659Z,99074.94
2022-11-28T03:59:00.168Z,99064.81
2022-11-28T04:01:34.602Z,99077.22
2022-11-28T04:04:27.040Z,99068.25
2022-11-28T04:06:59.633Z,99069.50
2022-11-28T04:09:49.842Z,99071.22
2022-11-28T04:12:32.022Z,99067.63
2022-11-28T04:15:12.189Z,99066.88
2022-11-28T04:17:51.244Z,99061.75
2022-11-28T04:20:42.709Z,99060.25
2022-11-28T04:23:13.166Z,99061.28
2022-11-28T04:25:47.147Z,99064.94
2022-11-28T04:28:20.572Z,99050.41
2022-11-28T04:30:49.941Z,99041.44
2022-11-28T04:33:19.490Z,99045.84
2022-11-28T04:35:51.706Z,99044.94
2022-11-28T04:38:19.735Z,99033.03
2022-11-28T04:40:59.596Z,99028.38
2022-11-28T04:44:08.608Z,99032.66
2022-11-28T04:46:43.605Z,99026.22
2022-11-28T04:49:12.307Z,99015.94
2022-11-28T04:52:01.809Z,99015.94
2022-11-28T04:54:54.076Z,99013.28
2022-11-28T04:57:42.296Z,99006.19
2022-11-28T05:00:17.953Z,99005.66
2022-11-28T05:02:46.803Z,99004.91
2022-11-28T05:05:21.950Z,99001.25
2022-11-28T05:07:49.201Z,98990.03
2022-11-28T05:10:17.282Z,98995.38
2022-11-28T05:12:44.385Z,98990.19
2022-11-28T05:15:11.694Z,98989.47
2022-11-28T05:17:42.136Z,98986.81
2022-11-28T05:20:10.202Z,98992.63
2022-11-28T05:22:37.242Z,98995.75
2022-11-28T05:25:04.637Z,98992.84
2022-11-28T05:27:31.702Z,98991.09
2022-11-28T05:29:58.708Z,98982.56
2022-11-28T05:32:25.676Z,98974.25
2022-11-28T05:34:53.022Z,98979.03
2022-11-28T05:37:20.152Z,98977.75
2022-11-28T05:39:47.116Z,98971.88
2022-11-28T05:42:14.200Z,98975.03
2022-11-28T05:44:41.170Z,98974.09
2022-11-28T05:47:08.137Z,98965.81
2022-11-28T05:49:35.609Z,98972.09
2022-11-28T05:52:02.666Z,98972.75
2022-11-28T05:54:30.877Z,98971.00
2022-11-28T05:56:58.088Z,98973.38
2022-11-28T05:59:25.524Z,98973.38
2022-11-28T06:01:52.919Z,98978.72
2022-11-28T06:04:20.054Z,98981.88
2022-11-28T06:06:49.752Z,98971.34
2022-11-28T06:09:16.971Z,98974.50
2022-11-28T06:11:44.168Z,98973.78
2022-11-28T06:14:11.887Z,98973.03
2022-11-28T06:16:39.259Z,98980.78
2022-11-28T06:19:06.495Z,98980.03
2022-11-28T06:21:34.018Z,98971.75
2022-11-28T06:24:01.239Z,98979.50
2022-11-28T06:26:29.029Z,98978.03
2022-11-28T06:28:56.352Z,98976.34
2022-11-28T06:31:28.474Z,98971.56
2022-11-28T06:33:56.466Z,98972.28
2022-11-28T06:36:24.020Z,98977.63
2022-11-28T06:38:51.019Z,98973.03
2022-11-28T06:41:19.878Z,98979.56
2022-11-28T06:43:47.472Z,98980.03
2022-11-28T06:46:17.803Z,98984.66
2022-11-28T06:48:46.500Z,98996.59
2022-11-28T06:51:14.604Z,98995.66
2022-11-28T06:53:41.975Z,98993.72
2022-11-28T06:56:11.796Z,98999.81
2022-11-28T06:58:38.880Z,99003.00
2022-11-28T07:01:18.416Z,99004.00
2022-11-28T07:03:46.268Z,99012.22
2022-11-28T07:06:14.817Z,99013.88
2022-11-28T07:08:41.923Z,99019.38
2022-11-28T07:11:10.444Z,99029.50
2022-11-28T07:13:37.681Z,99019.56
2022-11-28T07:16:05.198Z,99025.81
2022-11-28T07:18:32.888Z,99028.94
2022-11-28T07:21:00.081Z,99026.75
2022-11-28T07:23:27.056Z,99022.16
2022-11-28T07:26:02.705Z,99026.75
2022-11-28T07:28:31.471Z,99020.69
2022-11-28T07:31:22.001Z,99026.66
2022-11-28T07:33:50.913Z,99027.56
2022-11-28T07:36:26.973Z,99029.31
2022-11-28T07:38:56.754Z,99032.53
2022-11-28T07:41:26.737Z,99035.19
2022-11-28T07:43:56.809Z,99035.94
2022-11-28T07:46:25.273Z,99025.06
2022-11-28T07:48:55.220Z,99030.94
2022-11-28T07:51:29.151Z,99038.31
2022-11-28T07:53:57.089Z,99040.34
2022-11-28T07:56:39.322Z,99043.81
2022-11-28T07:59:11.877Z,99041.25
2022-11-28T08:01:39.086Z,99040.50
2022-11-28T08:04:08.525Z,99044.38
2022-11-28T08:06:41.935Z,99044.38
2022-11-28T08:09:09.603Z,99053.84
2022-11-28T08:11:36.785Z,99042.00
2022-11-28T08:14:05.375Z,99052.66
2022-11-28T08:16:32.901Z,99055.59
2022-11-28T08:19:03.790Z,99047.13
2022-11-28T08:21:32.881Z,99057.81
2022-11-28T08:24:02.030Z,99061.97
2022-11-28T08:26:31.225Z,99075.28
2022-11-28T08:28:59.685Z,99077.75
2022-11-28T08:31:30.624Z,99085.34
2022-11-28T08:33:59.136Z,99081.72
2022-11-28T08:36:28.930Z,99082.47
2022-11-28T08:39:22.410Z,99093.94
2022-11-28T08:41:43.547Z,99088.16
2022-11-28T08:44:10.570Z,99086.50
2022-11-28T08:46:37.632Z,99087.03
2022-11-28T08:49:04.995Z,99078.56
2022-11-28T08:51:32.434Z,99085.28
2022-11-28T08:54:00.100Z,99084.00
2022-11-28T08:56:28.770Z,99073.28
2022-11-28T08:58:55.958Z,99074.91
2022-11-28T09:01:25.112Z,99083.38
2022-11-28T09:03:53.312Z,99085.34
2022-11-28T09:06:22.024Z,99086.34
2022-11-28T09:08:50.189Z,99078.59
2022-11-28T09:11:20.416Z,99079.88
2022-11-28T09:13:47.681Z,99070.22
2022-11-28T09:16:15.773Z,99077.28
2022-11-28T09:18:43.383Z,99077.84
2022-11-28T09:21:12.734Z,99080.84
2022-11-28T09:23:42.418Z,99084.59
2022-11-28T09:26:15.238Z,99084.50
2022-11-28T09:28:42.350Z,99088.97
2022-11-28T09:31:09.654Z,99081.81
2022-11-28T09:33:37.042Z,99081.38
2022-11-28T09:36:09.101Z,99091.66
2022-11-28T09:38:36.890Z,99083.47
2022-11-28T09:41:15.427Z,99089.28
2022-11-28T09:43:47.720Z,99084.47
2022-11-28T09:46:25.017Z,99080.84
2022-11-28T09:48:58.454Z,99084.06
2022-11-28T09:51:31.525Z,99074.66
2022-11-28T09:54:29.370Z,99066.16
2022-11-28T09:56:59.158Z,99060.28
2022-11-28T09:59:28.302Z,99047.81
2022-11-28T10:01:58.464Z,99052.56
2022-11-28T10:04:34.116Z,99060.22
2022-11-28T10:07:19.802Z,99058.03
2022-11-28T10:10:08.670Z,99059.16
2022-11-28T10:13:01.914Z,99062.63
2022-11-28T10:15:50.135Z,99053.41
2022-11-28T10:18:45.899Z,99063.69
2022-11-28T10:21:18.991Z,99064.00
2022-11-28T10:23:48.478Z,99058.28
2022-11-28T10:26:38.195Z,99055.22
2022-11-28T10:29:27.170Z,99053.81
2022-11-28T10:31:58.396Z,99042.63
2022-11-28T10:34:41.825Z,99048.78
2022-11-28T10:37:14.180Z,99042.47
2022-11-28T10:39:44.952Z,99037.69
2022-11-28T10:42:14.989Z,99043.19
2022-11-28T10:45:03.742Z,99036.97
2022-11-28T10:48:29.558Z,99023.81
2022-11-28T10:51:11.143Z,99023.66
2022-11-28T10:53:53.417Z,99025.41
2022-11-28T10:57:03.938Z,99019.72
2022-11-28T10:59:46.555Z,99025.81
2022-11-28T11:02:32.643Z,99024.19
2022-11-28T11:04:59.899Z,99012.03
2022-11-28T11:07:31.834Z,99015.09
2022-11-28T11:10:32.766Z,99020.25
2022-11-28T11:13:00.160Z,99015.72
2022-11-28T11:15:30.937Z,98997.31
2022-11-28T11:17:58.892Z,99005.91
2022-11-28T11:20:25.863Z,99005.44
2022-11-28T11:23:12.830Z,99007.38
2022-11-28T11:25:48.867Z,99013.75
2022-11-28T11:28:42.936Z,99008.94
2022-11-28T11:31:21.010Z,99004.84
2022-11-28T11:33:51.474Z,99002.00
2022-11-28T11:36:28.213Z,99000.53
2022-11-28T11:39:13.106Z,98994.69
2022-11-28T11:41:45.909Z,98992.72
2022-11-28T11:44:16.090Z,98988.34
2022-11-28T11:47:02.042Z,98987.31
2022-11-28T11:49:35.054Z,98992.59
2022-11-28T11:52:13.360Z,98993.31
2022-11-28T11:55:00.986Z,98986.06
2022-11-28T11:57:34.844Z,98980.50
2022-11-28T12:00:07.534Z,98982.69
2022-11-28T12:02:52.364Z,98977.03
2022-11-28T12:05:52.750Z,98967.53
2022-11-28T12:08:39.753Z,98963.38
2022-11-28T12:11:28.099Z,98954.47
2022-11-28T12:13:57.759Z,98955.50
2022-11-28T12:17:25.689Z,98953.59
2022-11-28T12:20:23.300Z,98951.91
2022-11-28T12:23:18.057Z,98942.63
2022-11-28T12:25:57.756Z,98944.56
2022-11-28T12:28:45.141Z,98935.56
2022-11-28T12:31:40.353Z,98930.97
2022-11-28T12:34:26.966Z,98932.88
2022-11-28T12:37:05.671Z,98931.94
2022-11-28T12:39:39.657Z,98928.34
2022-11-28T12:42:14.304Z,98928.56
2022-11-28T12:45:17.799Z,98923.03
2022-11-28T12:47:53.971Z,98922.59
2022-11-28T12:50:26.946Z,98912.63
2022-11-28T12:53:00.164Z,98915.06
2022-11-28T12:55:49.627Z,98913.66
2022-11-28T12:58:28.094Z,98909.03
2022-11-28T13:01:00.688Z,98893.00
2022-11-28T13:03:44.889Z,98896.47
2022-11-28T13:06:29.968Z,98901.34
2022-11-28T13:09:15.893Z,98894.50
2022-11-28T13:12:03.910Z,98887.44
2022-11-28T13:14:46.470Z,98877.72
2022-11-28T13:17:36.251Z,98878.22
2022-11-28T13:20:32.296Z,98877.75
2022-11-28T13:23:04.684Z,98872.13
2022-11-28T13:26:04.382Z,98875.06
2022-11-28T13:28:41.043Z,98867.75
2022-11-28T13:31:31.375Z,98873.88
2022-11-28T13:33:58.688Z,98868.75
2022-11-28T13:39:45.595Z,98867.06
2022-11-28T13:43:03.951Z,98860.72
2022-11-28T13:51:31.006Z,98849.22
2022-11-28T13:54:17.778Z,98848.25
2022-11-28T13:57:16.807Z,98844.84
2022-11-28T14:00:00.568Z,98847.50
2022-11-28T14:02:33.941Z,98837.03
2022-11-28T14:05:01.916Z,98827.06
2022-11-28T14:07:32.587Z,98827.25
2022-11-28T14:10:24.542Z,98836.28
2022-11-28T14:13:16.105Z,98831.88
2022-11-28T14:16:03.113Z,98829.94
2022-11-28T14:19:07.113Z,98823.31
2022-11-28T14:21:52.471Z,98814.06
2022-11-28T14:24:19.476Z,98808.19
2022-11-28T14:26:46.715Z,98824.50
2022-11-28T14:29:41.333Z,98808.66
2022-11-28T14:32:32.093Z,98809.59
2022-11-28T14:35:00.041Z,98814.00
2022-11-28T14:37:35.920Z,98816.44
2022-11-28T14:40:03.935Z,98807.63
2022-11-28T14:42:59.013Z,98805.94
2022-11-28T14:45:33.121Z,98810.13
2022-11-28T14:48:19.696Z,98807.19
2022-11-28T14:50:54.740Z,98800.09
2022-11-28T14:53:44.904Z,98800.78
2022-11-28T14:56:18.132Z,98800.53
2022-11-28T14:58:52.527Z,98797.84
2022-11-28T15:01:30.435Z,98792.50
2022-11-28T15:04:00.816Z,98791.47
2022-11-28T15:06:37.384Z,98790.50
2022-11-28T15:09:19.853Z,98791.63
2022-11-28T15:12:05.583Z,98793.06
2022-11-28T15:14:33.611Z,98791.84
2022-11-28T15:17:06.577Z,98797.78
2022-11-28T15:19:45.442Z,98794.91
2022-11-28T15:22:32.865Z,98787.16
2022-11-28T15:25:00.251Z,98787.38
2022-11-28T15:27:28.280Z,98779.03
2022-11-28T15:30:00.549Z,98784.13
2022-11-28T15:32:30.045Z,98782.16
2022-11-28T15:35:06.554Z,98780.44
2022-11-28T15:37:38.134Z,98779.50
2022-11-28T15:40:06.753Z,98778.81
2022-11-28T15:42:36.729Z,98778.59
2022-11-28T15:45:16.266Z,98774.44
2022-11-28T15:47:46.880Z,98773.44
2022-11-28T15:50:25.330Z,98773.44
2022-11-28T15:53:03.104Z,98769.78
2022-11-28T15:55:34.842Z,98773.72
2022-11-28T15:58:21.355Z,98767.16
2022-11-28T16:00:59.030Z,98763.69
2022-11-28T16:03:31.388Z,98763.44
2022-11-28T16:05:59.847Z,98767.56
2022-11-28T16:08:35.957Z,98764.38
2022-11-28T16:11:05.956Z,98758.00
2022-11-28T16:13:34.053Z,98759.75
2022-11-28T16:16:04.534Z,98770.00
2022-11-28T16:18:31.987Z,98772.00
2022-11-28T16:21:01.342Z,98771.06
2022-11-28T16:23:34.744Z,98771.34
2022-11-28T16:26:08.533Z,98776.94
2022-11-28T16:28:38.645Z,98772.59
2022-11-28T16:31:13.148Z,98774.06
2022-11-28T16:33:45.164Z,98774.56
2022-11-28T16:36:20.918Z,98775.50
2022-11-28T16:38:50.626Z,98774.53
2022-11-28T16:41:27.545Z,98775.00
2022-11-28T16:44:16.107Z,98772.03
2022-11-28T16:46:52.174Z,98772.22
2022-11-28T16:49:31.065Z,98770.47
2022-11-28T16:52:27.625Z,98764.88
2022-11-28T16:55:01.113Z,98767.84
2022-11-28T16:57:46.717Z,98770.06
2022-11-28T17:00:13.939Z,98768.59
2022-11-28T17:02:40.920Z,98765.22
2022-11-28T17:05:09.635Z,98763.31
2022-11-28T17:07:37.087Z,98766.00
2022-11-28T17:10:04.494Z,98767.00
2022-11-28T17:12:39.193Z,98765.31
2022-11-28T17:15:11.081Z,98766.81
2022-11-28T17:17:38.038Z,98770.72
2022-11-28T17:20:05.763Z,98774.16
2022-11-28T17:22:41.181Z,98772.69
2022-11-28T17:25:15.346Z,98775.63
2022-11-28T17:27:42.789Z,98771.50
2022-11-28T17:30:18.017Z,98769.81
2022-11-28T17:32:47.298Z,98772.25
2022-11-28T17:35:30.212Z,98772.03
2022-11-28T17:37:57.322Z,98772.03
2022-11-28T17:40:33.467Z,98773.25
2022-11-28T17:43:01.476Z,98775.69
2022-11-28T17:45:31.559Z,98771.06
2022-11-28T17:47:58.663Z,98785.19
2022-11-28T17:50:25.770Z,98774.72
2022-11-28T17:52:52.913Z,98776.66
2022-11-28T17:55:20.942Z,98771.78
2022-11-28T17:57:48.167Z,98778.84
2022-11-28T18:00:16.982Z,98769.81
2022-11-28T18:02:44.082Z,98768.84
2022-11-28T18:05:11.170Z,98765.47
2022-11-28T18:07:38.211Z,98785.44
2022-11-28T18:10:05.894Z,98778.84
2022-11-28T18:12:33.049Z,98778.84
2022-11-28T18:15:01.406Z,98783.25
2022-11-28T18:17:28.559Z,98786.38
2022-11-28T18:19:57.678Z,98787.84
2022-11-28T18:22:25.282Z,98797.31
2022-11-28T18:24:52.226Z,98789.53
2022-11-28T18:27:19.176Z,98790.75
2022-11-28T18:29:46.625Z,98789.75
2022-11-28T18:32:13.859Z,98793.63
2022-11-28T18:34:40.944Z,98797.28
2022-11-28T18:37:08.722Z,98800.66
2022-11-28T18:39:35.839Z,98794.75
2022-11-28T18:42:02.875Z,98797.16
2022-11-28T18:44:29.949Z,98800.31
2022-11-28T18:46:56.952Z,98798.84
2022-11-28T18:49:23.918Z,98810.53
2022-11-28T18:51:51.103Z,98813.44
2022-11-28T18:54:21.400Z,98811.72
2022-11-28T18:56:49.063Z,98810.72
2022-11-28T18:59:16.174Z,98816.28
2022-11-28T19:01:43.228Z,98821.13
2022-11-28T19:04:12.819Z,98822.34
2022-11-28T19:06:41.169Z,98826.66
2022-11-28T19:09:12.524Z,98829.34
2022-11-28T19:11:40.661Z,98832.28
2022-11-28T19:14:08.919Z,98833.72
2022-11-28T19:16:37.935Z,98826.66
2022-11-28T19:19:06.960Z,98838.31
2022-11-28T19:21:35.721Z,98832.69
2022-11-28T19:24:03.648Z,98821.25
2022-11-28T19:26:33.690Z,98832.13
2022-11-28T19:29:01.841Z,98830.91
2022-11-28T19:31:34.340Z,98830.41
2022-11-28T19:34:13.357Z,98833.06
2022-11-28T19:36:43.492Z,98829.41
2022-11-28T19:39:24.453Z,98835.22
2022-11-28T19:41:55.409Z,98829.38
2022-11-28T19:44:24.484Z,98833.69
2022-11-28T19:46:53.084Z,98838.06
2022-11-28T19:49:22.936Z,98845.09
2022-11-28T19:51:50.773Z,98847.72
2022-11-28T19:54:21.719Z,98851.31
2022-11-28T19:56:49.718Z,98853.25
2022-11-28T19:59:17.540Z,98861.50
2022-11-28T20:01:44.883Z,98860.09
2022-11-28T20:04:11.917Z,98861.50
2022-11-28T20:06:39.225Z,98860.09
2022-11-28T20:09:09.859Z,98865.44
2022-11-28T20:11:37.552Z,98867.81
2022-11-28T20:14:11.756Z,98867.59
2022-11-28T20:16:39.011Z,98873.84
2022-11-28T20:19:07.158Z,98874.13
2022-11-28T20:21:34.710Z,98868.78
2022-11-28T20:24:04.875Z,98867.09
2022-11-28T20:26:35.398Z,98871.69
2022-11-28T20:29:02.443Z,98866.34
2022-11-28T20:31:35.136Z,98868.53
2022-11-28T20:34:02.472Z,98869.53
2022-11-28T20:36:31.307Z,98875.16
2022-11-28T20:38:59.077Z,98879.31
2022-11-28T20:41:27.573Z,98880.50
2022-11-28T20:43:54.606Z,98881.22
2022-11-28T20:46:28.531Z,98884.66
2022-11-28T20:48:58.158Z,98877.81
2022-11-28T20:51:26.641Z,98882.69
2022-11-28T20:53:54.775Z,98882.97
2022-11-28T20:56:23.919Z,98878.59
2022-11-28T20:58:57.721Z,98884.47
2022-11-28T21:01:27.562Z,98879.84
2022-11-28T21:03:56.138Z,98881.78
2022-11-28T21:06:23.237Z,98880.13
2022-11-28T21:08:50.364Z,98883.03
2022-11-28T21:11:36.925Z,98885.69
2022-11-28T21:14:07.314Z,98882.28
2022-11-28T21:16:34.759Z,98883.03
2022-11-28T21:19:09.144Z,98887.41
2022-11-28T21:21:38.687Z,98893.25
2022-11-28T21:24:08.950Z,98896.19
2022-11-28T21:26:40.961Z,98889.63
2022-11-28T21:29:09.813Z,98885.50
2022-11-28T21:31:41.202Z,98891.81
2022-11-28T21:34:08.326Z,98896.88
2022-11-28T21:36:35.580Z,98892.97
2022-11-28T21:39:02.596Z,98889.06
2022-11-28T21:41:31.667Z,98895.88
2022-11-28T21:44:00.501Z,98894.69
2022-11-28T21:46:27.807Z,98896.09
2022-11-28T21:48:55.025Z,98897.50
2022-11-28T21:51:24.898Z,98894.13
2022-11-28T21:53:52.866Z,98898.50
2022-11-28T21:56:20.081Z,98903.84
2022-11-28T21:58:47.068Z,98901.66
2022-11-28T22:01:15.377Z,98898.72
2022-11-28T22:03:43.995Z,98897.25
2022-11-28T22:06:16.232Z,98892.38
2022-11-28T22:08:43.671Z,98902.31
2022-11-28T22:11:14.380Z,98898.41
2022-11-28T22:13:42.724Z,98896.97
2022-11-28T22:16:29.676Z,98892.50
2022-11-28T22:18:59.680Z,98889.78
2022-11-28T22:24:14.245Z,98901.13
2022-11-28T22:26:41.294Z,98893.53
2022-11-28T22:29:08.816Z,98898.34
2022-11-28T22:31:35.991Z,98898.06
2022-11-28T22:34:03.086Z,98900.47
2022-11-28T22:36:31.603Z,98897.50
2022-11-28T22:38:59.569Z,98894.16
2022-11-28T22:41:29.331Z,98905.00
2022-11-28T22:44:00.809Z,98893.16
2022-11-28T22:46:28.863Z,98897.00
2022-11-28T22:48:56.246Z,98898.22
2022-11-28T22:51:25.664Z,98900.16
2022-11-28T22:53:57.379Z,98900.88
2022-11-28T22:56:24.870Z,98895.53
2022-11-28T22:58:52.127Z,98899.41
2022-11-28T23:01:23.015Z,98902.34
2022-11-28T23:03:50.512Z,98895.53
2022-11-28T23:06:22.666Z,98898.47
2022-11-28T23:08:50.138Z,98893.16
2022-11-28T23:11:20.150Z,98895.53
2022-11-28T23:13:51.015Z,98892.59
2022-11-28T23:16:19.617Z,98889.22
2022-11-28T23:18:49.473Z,98891.13
2022-11-28T23:21:18.149Z,98894.06
2022-11-28T23:23:46.230Z,98885.59
2022-11-28T23:26:19.235Z,98880.47
2022-11-28T23:28:46.599Z,98886.00
2022-11-28T23:31:17.928Z,98881.38
2022-11-28T23:33:45.815Z,98870.38
2022-11-28T23:36:23.694Z,98872.06
2022-11-28T23:38:59.575Z,98871.34
2022-11-28T23:41:27.646Z,98870.31
2022-11-28T23:43:54.854Z,98868.88
2022-11-28T23:46:23.399Z,98868.34
2022-11-28T23:48:50.854Z,98861.25
2022-11-28T23:51:21.685Z,98869.94
2022-11-28T23:53:50.132Z,98864.31
2022-11-28T23:56:22.960Z,98860.19
2022-11-28T23:58:50.957Z,98865.72
